Time;durP1;ratioP1;P1;durP2;ratioP2;P2;SDS_P1;SDS_P2;PMS_P1;PMS_P2;Temp;Humidity;BMP_temperature;BMP_pressure;BME280_temperature;BME280_humidity;BME280_pressure;Samples;Min_cycle;Max_cycle;Signal;HPM_P1;HPM_P2
2023/01/19 00:01:34;;;;;;;;;13.25;10.00;;;;;-147.17;100.00;-15917.19;5042419;28;51357;-56
2023/01/19 00:04:00;;;;;;;;;13.25;12.50;;;;;-147.17;100.00;-15917.19;5046932;28;51456;-57
2023/01/19 00:06:25;;;;;;;;;12.50;10.25;;;;;-147.17;100.00;-15917.19;5043025;28;51173;-57
2023/01/19 00:08:51;;;;;;;;;12.50;11.50;;;;;-147.17;100.00;-15917.19;5045973;28;51217;-57
2023/01/19 00:11:16;;;;;;;;;10.75;10.25;;;;;-147.17;100.00;-15917.19;5049094;28;51131;-57
2023/01/19 00:13:49;;;;;;;;;10.75;9.75;;;;;-147.17;100.00;-15917.19;5055747;27;50991;-58
2023/01/19 00:16:18;;;;;;;;;13.25;13.00;;;;;-147.17;100.00;-15917.19;5036612;28;51237;-58
2023/01/19 00:18:45;;;;;;;;;10.25;10.00;;;;;-147.17;100.00;-15917.19;5036111;28;51144;-57
2023/01/19 00:21:11;;;;;;;;;11.50;10.75;;;;;-147.17;100.00;-15917.19;5046811;28;51168;-56
2023/01/19 00:23:36;;;;;;;;;10.50;10.50;;;;;-147.17;100.00;-15917.19;5040591;28;51314;-57
2023/01/19 00:26:02;;;;;;;;;9.75;9.00;;;;;-147.17;100.00;-15917.19;5033013;28;51966;-56
2023/01/19 00:28:27;;;;;;;;;13.25;12.25;;;;;-147.17;100.00;-15917.19;5039889;28;50989;-57
2023/01/19 00:30:52;;;;;;;;;11.25;11.25;;;;;-147.17;100.00;-15917.19;5047137;28;51514;-57
2023/01/19 00:33:18;;;;;;;;;11.50;10.00;;;;;-147.17;100.00;-15917.19;5046943;28;50887;-57
2023/01/19 00:35:43;;;;;;;;;12.00;10.75;;;;;-147.17;100.00;-15917.19;5033249;28;51887;-58
2023/01/19 00:38:10;;;;;;;;;13.00;13.00;;;;;-147.17;100.00;-15917.19;5045921;28;50954;-58
2023/01/19 00:40:36;;;;;;;;;12.75;10.25;;;;;-147.17;100.00;-15917.19;5038926;28;51163;-58
2023/01/19 00:43:02;;;;;;;;;14.25;14.00;;;;;-147.17;100.00;-15917.19;5059343;28;51023;-58
2023/01/19 00:45:28;;;;;;;;;15.25;13.00;;;;;-147.17;100.00;-15917.19;5053382;28;51699;-57
2023/01/19 00:47:55;;;;;;;;;10.50;10.00;;;;;-147.17;100.00;-15917.19;5052636;28;52001;-57
2023/01/19 00:50:22;;;;;;;;;11.25;10.00;;;;;-147.17;100.00;-15917.19;5052440;28;51180;-57
2023/01/19 00:52:48;;;;;;;;;18.50;14.50;;;;;-147.17;100.00;-15917.19;5053118;28;51962;-58
2023/01/19 00:55:14;;;;;;;;;12.50;11.75;;;;;-147.17;100.00;-15917.19;5040609;28;51720;-58
2023/01/19 00:57:41;;;;;;;;;18.00;15.75;;;;;-147.17;100.00;-15917.19;5056676;28;51228;-58
2023/01/19 01:00:11;;;;;;;;;13.50;12.50;;;;;-147.17;100.00;-15917.19;5047928;27;51212;-58
2023/01/19 01:02:39;;;;;;;;;15.25;13.50;;;;;-147.17;100.00;-15917.19;5039262;28;51050;-58
2023/01/19 01:05:05;;;;;;;;;12.75;12.00;;;;;-147.17;100.00;-15917.19;5041165;28;51192;-57
2023/01/19 01:07:39;;;;;;;;;16.00;14.00;;;;;-147.17;100.00;-15917.19;5054285;28;51231;-58
2023/01/19 01:10:19;;;;;;;;;15.25;12.25;;;;;-147.17;100.00;-15917.19;5038713;28;51554;-57
2023/01/19 01:12:46;;;;;;;;;13.75;13.75;;;;;-147.17;100.00;-15917.19;5065602;28;51101;-58
2023/01/19 01:15:13;;;;;;;;;15.00;12.25;;;;;-147.17;100.00;-15917.19;5047281;28;51594;-57
2023/01/19 01:17:45;;;;;;;;;9.00;9.00;;;;;-147.17;100.00;-15917.19;5058147;28;50959;-56
2023/01/19 01:20:16;;;;;;;;;12.75;10.50;;;;;-147.17;100.00;-15917.19;5040871;27;51282;-57
2023/01/19 01:22:44;;;;;;;;;10.00;10.00;;;;;-147.17;100.00;-15917.19;5037060;28;52078;-56
2023/01/19 01:25:11;;;;;;;;;12.25;12.25;;;;;-147.17;100.00;-15917.19;5036998;28;52622;-57
2023/01/19 01:27:36;;;;;;;;;12.50;11.50;;;;;-147.17;100.00;-15917.19;5071157;27;51072;-57
2023/01/19 01:30:02;;;;;;;;;12.50;12.50;;;;;-147.17;100.00;-15917.19;5039980;28;51338;-58
2023/01/19 01:32:27;;;;;;;;;12.75;11.25;;;;;-147.17;100.00;-15917.19;5041736;28;51209;-57
2023/01/19 01:34:53;;;;;;;;;10.00;10.00;;;;;-147.17;100.00;-15917.19;5039716;28;51631;-57
2023/01/19 01:37:18;;;;;;;;;10.00;9.50;;;;;-147.17;100.00;-15917.19;5036245;28;50934;-57
2023/01/19 01:39:43;;;;;;;;;10.25;9.25;;;;;-147.17;100.00;-15917.19;5053363;28;51103;-57
2023/01/19 01:42:16;;;;;;;;;13.50;11.75;;;;;-147.17;100.00;-15917.19;5035513;28;51019;-56
2023/01/19 01:44:51;;;;;;;;;14.00;13.75;;;;;-147.17;100.00;-15917.19;5033851;28;51840;-57
2023/01/19 01:47:29;;;;;;;;;10.75;10.50;;;;;-147.17;100.00;-15917.19;5055985;28;51321;-57
2023/01/19 01:50:20;;;;;;;;;10.00;10.00;;;;;-147.17;100.00;-15917.19;5044915;28;50987;-57
2023/01/19 01:52:53;;;;;;;;;12.25;11.00;;;;;-147.17;100.00;-15917.19;5035903;28;53218;-57
2023/01/19 01:55:21;;;;;;;;;17.25;14.25;;;;;-147.17;100.00;-15917.19;5037293;28;51194;-57
2023/01/19 01:57:51;;;;;;;;;11.00;11.00;;;;;-147.17;100.00;-15917.19;5046030;28;51172;-56
2023/01/19 02:00:16;;;;;;;;;12.25;12.25;;;;;-147.17;100.00;-15917.19;5055393;28;51102;-57
2023/01/19 02:02:55;;;;;;;;;13.00;12.00;;;;;-147.17;100.00;-15917.19;5050287;28;50974;-57
2023/01/19 02:05:30;;;;;;;;;13.75;13.00;;;;;-147.17;100.00;-15917.19;5037026;28;51938;-56
2023/01/19 02:13:37;;;;;;;;;12.00;11.50;;;;;-147.17;100.00;-15917.19;5034179;28;51178;-56
2023/01/19 02:16:06;;;;;;;;;9.50;8.00;;;;;-147.17;100.00;-15917.19;5038194;28;52793;-56
2023/01/19 02:18:33;;;;;;;;;12.00;10.00;;;;;-147.17;100.00;-15917.19;5048115;28;51227;-57
2023/01/19 02:21:04;;;;;;;;;10.75;9.00;;;;;-147.17;100.00;-15917.19;5045805;28;51145;-56
2023/01/19 02:23:51;;;;;;;;;13.00;12.00;;;;;-147.17;100.00;-15917.19;5040535;27;51139;-57
2023/01/19 02:26:29;;;;;;;;;17.25;15.75;;;;;-147.17;100.00;-15917.19;5056744;28;52707;-58
2023/01/19 02:29:04;;;;;;;;;16.75;15.50;;;;;-147.17;100.00;-15917.19;5071828;27;51249;-57
2023/01/19 02:31:32;;;;;;;;;14.00;12.75;;;;;-147.17;100.00;-15917.19;5059852;28;50947;-57
2023/01/19 02:34:00;;;;;;;;;16.25;12.00;;;;;-147.17;100.00;-15917.19;5034905;28;51307;-57
2023/01/19 02:36:41;;;;;;;;;13.25;12.25;;;;;-147.17;100.00;-15917.19;5044926;28;51222;-57
2023/01/19 02:39:09;;;;;;;;;17.00;13.25;;;;;-147.17;100.00;-15917.19;5044240;28;51072;-56
2023/01/19 02:41:41;;;;;;;;;20.00;15.50;;;;;-147.17;100.00;-15917.19;5052681;28;51152;-56
2023/01/19 02:44:08;;;;;;;;;16.75;16.25;;;;;-147.17;100.00;-15917.19;5034086;28;51222;-57
2023/01/19 02:46:34;;;;;;;;;18.25;14.25;;;;;-147.17;100.00;-15917.19;5059079;28;51751;-57
2023/01/19 02:49:00;;;;;;;;;20.00;16.50;;;;;-147.17;100.00;-15917.19;5048063;28;51227;-57
2023/01/19 02:51:27;;;;;;;;;17.25;15.50;;;;;-147.17;100.00;-15917.19;5048138;28;51053;-58
2023/01/19 02:54:28;;;;;;;;;22.00;16.25;;;;;-147.17;100.00;-15917.19;5036886;28;51319;-58
2023/01/19 02:57:09;;;;;;;;;23.00;20.00;;;;;-147.17;100.00;-15917.19;5033453;28;51142;-57
2023/01/19 03:00:06;;;;;;;;;18.50;16.50;;;;;-147.17;100.00;-15917.19;5063550;28;51131;-58
2023/01/19 03:03:18;;;;;;;;;19.50;16.50;;;;;-147.17;100.00;-15917.19;5038836;28;50986;-58
2023/01/19 03:06:02;;;;;;;;;17.50;16.75;;;;;-147.17;100.00;-15917.19;5052447;27;51263;-57
2023/01/19 03:08:27;;;;;;;;;18.50;15.50;;;;;-147.17;100.00;-15917.19;5040520;28;51270;-57
2023/01/19 03:11:05;;;;;;;;;20.25;18.50;;;;;-147.17;100.00;-15917.19;5050105;28;51255;-57
2023/01/19 03:13:43;;;;;;;;;15.75;15.50;;;;;-147.17;100.00;-15917.19;5062381;28;51085;-57
2023/01/19 03:16:20;;;;;;;;;19.25;16.50;;;;;-147.17;100.00;-15917.19;5065593;27;51286;-57
2023/01/19 03:18:55;;;;;;;;;17.00;16.50;;;;;-147.17;100.00;-15917.19;5058407;27;52818;-58
2023/01/19 03:21:26;;;;;;;;;18.00;17.75;;;;;-147.17;100.00;-15917.19;5049126;28;51066;-58
2023/01/19 03:23:54;;;;;;;;;19.25;16.00;;;;;-147.17;100.00;-15917.19;5043525;28;50938;-57
2023/01/19 03:26:30;;;;;;;;;19.25;17.75;;;;;-147.17;100.00;-15917.19;5058585;27;51271;-57
2023/01/19 03:29:01;;;;;;;;;20.50;18.50;;;;;-147.17;100.00;-15917.19;5054741;28;51095;-58
2023/01/19 03:31:30;;;;;;;;;18.25;17.75;;;;;-147.17;100.00;-15917.19;5037637;28;51001;-57
2023/01/19 03:34:01;;;;;;;;;19.25;16.25;;;;;-147.17;100.00;-15917.19;5050639;28;51259;-58
2023/01/19 03:36:33;;;;;;;;;20.25;18.50;;;;;-147.17;100.00;-15917.19;5041639;28;51163;-58
2023/01/19 03:39:02;;;;;;;;;13.50;13.00;;;;;-147.17;100.00;-15917.19;5035576;28;51140;-57
2023/01/19 03:41:31;;;;;;;;;18.00;13.50;;;;;-147.17;100.00;-15917.19;5047262;28;51060;-58
2023/01/19 03:43:57;;;;;;;;;20.00;18.50;;;;;-147.17;100.00;-15917.19;5050013;28;51208;-57
2023/01/19 03:46:25;;;;;;;;;21.25;18.00;;;;;-147.17;100.00;-15917.19;5053291;28;51273;-58
2023/01/19 03:48:51;;;;;;;;;17.00;16.50;;;;;-147.17;100.00;-15917.19;5046005;28;51724;-57
2023/01/19 03:51:18;;;;;;;;;21.00;20.25;;;;;-147.17;100.00;-15917.19;5060709;27;51400;-57
2023/01/19 03:53:44;;;;;;;;;20.25;17.50;;;;;-147.17;100.00;-15917.19;5045479;28;51265;-58
2023/01/19 03:56:20;;;;;;;;;17.75;17.75;;;;;-147.17;100.00;-15917.19;5049990;28;50980;-58
2023/01/19 03:58:46;;;;;;;;;15.75;15.50;;;;;-147.17;100.00;-15917.19;5052693;28;51240;-58
2023/01/19 04:01:13;;;;;;;;;21.50;20.25;;;;;-147.17;100.00;-15917.19;5056480;27;53039;-56
2023/01/19 04:03:39;;;;;;;;;21.00;17.50;;;;;-147.17;100.00;-15917.19;5059745;28;51103;-58
2023/01/19 04:06:06;;;;;;;;;23.25;20.25;;;;;-147.17;100.00;-15917.19;5063964;27;51276;-57
2023/01/19 04:08:31;;;;;;;;;17.00;16.50;;;;;-147.17;100.00;-15917.19;5055672;27;51166;-58
2023/01/19 04:10:57;;;;;;;;;24.75;23.25;;;;;-147.17;100.00;-15917.19;5049589;28;51109;-57
2023/01/19 04:13:29;;;;;;;;;23.00;20.25;;;;;-147.17;100.00;-15917.19;5053006;28;51399;-57
2023/01/19 04:15:59;;;;;;;;;21.50;18.50;;;;;-147.17;100.00;-15917.19;5050364;28;51152;-58
2023/01/19 04:18:25;;;;;;;;;15.25;12.25;;;;;-147.17;100.00;-15917.19;5044821;28;52056;-57
2023/01/19 04:20:50;;;;;;;;;26.25;23.50;;;;;-147.17;100.00;-15917.19;5045952;27;51352;-57
2023/01/19 04:23:15;;;;;;;;;19.75;18.00;;;;;-147.17;100.00;-15917.19;5067021;27;51567;-58
2023/01/19 04:25:41;;;;;;;;;16.50;16.50;;;;;-147.17;100.00;-15917.19;5047157;28;50977;-58
2023/01/19 04:28:06;;;;;;;;;20.25;18.75;;;;;-147.17;100.00;-15917.19;5060764;28;51698;-58
2023/01/19 04:30:31;;;;;;;;;21.00;19.75;;;;;-147.17;100.00;-15917.19;5065522;27;51141;-56
2023/01/19 04:32:58;;;;;;;;;25.00;23.00;;;;;-147.17;100.00;-15917.19;5041055;27;51816;-57
2023/01/19 04:35:23;;;;;;;;;16.00;15.25;;;;;-147.17;100.00;-15917.19;5052366;28;51230;-57
2023/01/19 04:37:48;;;;;;;;;24.50;21.50;;;;;-147.17;100.00;-15917.19;5056412;28;51619;-58
2023/01/19 04:40:14;;;;;;;;;27.25;20.00;;;;;-147.17;100.00;-15917.19;5050545;28;51165;-58
2023/01/19 04:42:44;;;;;;;;;22.00;20.00;;;;;-147.17;100.00;-15917.19;5052530;28;51107;-58
2023/01/19 04:45:10;;;;;;;;;20.00;18.75;;;;;-147.17;100.00;-15917.19;5049551;28;50944;-57
2023/01/19 04:47:36;;;;;;;;;20.50;17.50;;;;;-147.17;100.00;-15917.19;5064950;28;51828;-57
2023/01/19 04:50:01;;;;;;;;;17.25;15.75;;;;;-147.17;100.00;-15917.19;5059739;27;51163;-57
2023/01/19 04:52:34;;;;;;;;;20.00;18.25;;;;;-147.17;100.00;-15917.19;5060937;28;51211;-58
2023/01/19 04:55:04;;;;;;;;;18.00;18.00;;;;;-147.17;100.00;-15917.19;5073663;27;51224;-57
2023/01/19 04:57:29;;;;;;;;;20.50;17.00;;;;;-147.17;100.00;-15917.19;5046313;28;52201;-58
2023/01/19 04:59:56;;;;;;;;;14.75;14.75;;;;;-147.17;100.00;-15917.19;5056714;28;51078;-57
2023/01/19 05:02:22;;;;;;;;;20.25;19.25;;;;;-147.17;100.00;-15917.19;5054147;28;51164;-57
2023/01/19 05:04:47;;;;;;;;;15.75;15.00;;;;;-147.17;100.00;-15917.19;5052650;28;51360;-56
2023/01/19 05:07:13;;;;;;;;;20.00;17.75;;;;;-147.17;100.00;-15917.19;5065545;27;52472;-56
2023/01/19 05:09:38;;;;;;;;;18.50;16.00;;;;;-147.17;100.00;-15917.19;5059687;27;51341;-56
2023/01/19 05:12:04;;;;;;;;;15.25;11.00;;;;;-147.17;100.00;-15917.19;5048687;27;51297;-57
2023/01/19 05:14:30;;;;;;;;;19.50;18.00;;;;;-147.17;100.00;-15917.19;5054319;28;51276;-57
2023/01/19 05:16:55;;;;;;;;;17.50;15.50;;;;;-147.17;100.00;-15917.19;5055259;28;51819;-57
2023/01/19 05:19:21;;;;;;;;;19.50;16.00;;;;;-147.17;100.00;-15917.19;5068004;28;51199;-60
2023/01/19 05:21:46;;;;;;;;;16.75;15.25;;;;;-147.17;100.00;-15917.19;5069291;27;51480;-57
2023/01/19 05:24:12;;;;;;;;;26.00;20.00;;;;;-147.17;100.00;-15917.19;5058173;28;51106;-57
2023/01/19 05:26:37;;;;;;;;;17.25;17.25;;;;;-147.17;100.00;-15917.19;5064886;28;51874;-62
2023/01/19 05:29:02;;;;;;;;;23.00;20.00;;;;;-147.17;100.00;-15917.19;5089290;27;51198;-58
2023/01/19 05:31:28;;;;;;;;;16.25;14.50;;;;;-147.17;100.00;-15917.19;5065316;27;51048;-57
2023/01/19 05:33:53;;;;;;;;;14.50;13.25;;;;;-147.17;100.00;-15917.19;5063836;28;51211;-57
2023/01/19 05:36:18;;;;;;;;;21.25;17.75;;;;;-147.17;100.00;-15917.19;5054364;27;52212;-57
2023/01/19 05:38:44;;;;;;;;;19.00;15.00;;;;;-147.17;100.00;-15917.19;5062343;28;51145;-57
2023/01/19 05:41:09;;;;;;;;;12.25;12.25;;;;;-147.17;100.00;-15917.19;5063238;27;51211;-58
2023/01/19 05:43:34;;;;;;;;;17.00;15.00;;;;;-147.17;100.00;-15917.19;5060449;28;51358;-58
2023/01/19 05:46:03;;;;;;;;;15.25;15.00;;;;;-147.17;100.00;-15917.19;5053748;28;51811;-57
2023/01/19 05:48:28;;;;;;;;;16.75;13.25;;;;;-147.17;100.00;-15917.19;5059462;28;51255;-56
2023/01/19 05:50:57;;;;;;;;;18.25;15.00;;;;;-147.17;100.00;-15917.19;5057019;27;51265;-57
2023/01/19 05:53:23;;;;;;;;;11.50;11.00;;;;;-147.17;100.00;-15917.19;5053452;28;51281;-57
2023/01/19 05:55:48;;;;;;;;;14.75;12.50;;;;;-147.17;100.00;-15917.19;5054678;28;52583;-57
2023/01/19 05:58:13;;;;;;;;;22.25;20.75;;;;;-147.17;100.00;-15917.19;5067150;27;51021;-57
2023/01/19 06:00:39;;;;;;;;;13.00;11.75;;;;;-147.17;100.00;-15917.19;5052342;28;51100;-57
2023/01/19 06:03:05;;;;;;;;;15.50;12.00;;;;;-147.17;100.00;-15917.19;5043386;28;51355;-58
2023/01/19 06:05:31;;;;;;;;;15.00;13.25;;;;;-147.17;100.00;-15917.19;5064719;28;51708;-58
2023/01/19 06:07:56;;;;;;;;;35.00;34.00;;;;;-147.17;100.00;-15917.19;5049537;27;51156;-57
2023/01/19 06:10:22;;;;;;;;;16.50;13.00;;;;;-147.17;100.00;-15917.19;5071952;27;50895;-58
2023/01/19 06:12:47;;;;;;;;;17.50;15.50;;;;;-147.17;100.00;-15917.19;5060908;28;51142;-59
2023/01/19 06:15:14;;;;;;;;;16.50;15.00;;;;;-147.17;100.00;-15917.19;5056642;28;51824;-57
2023/01/19 06:17:40;;;;;;;;;16.00;12.00;;;;;-147.17;100.00;-15917.19;5036759;28;52633;-57
2023/01/19 06:20:06;;;;;;;;;12.25;11.00;;;;;-147.17;100.00;-15917.19;5059223;28;51002;-57
2023/01/19 06:22:31;;;;;;;;;19.00;14.75;;;;;-147.17;100.00;-15917.19;5055687;28;51355;-58
2023/01/19 06:24:57;;;;;;;;;12.50;11.50;;;;;-147.17;100.00;-15917.19;5052267;28;51963;-58
2023/01/19 06:27:22;;;;;;;;;16.25;16.25;;;;;-147.17;100.00;-15917.19;5061209;28;51105;-57
2023/01/19 06:29:48;;;;;;;;;15.50;15.00;;;;;-147.17;100.00;-15917.19;5070396;28;51218;-58
2023/01/19 06:32:13;;;;;;;;;14.50;12.75;;;;;-147.17;100.00;-15917.19;5053241;28;51332;-58
2023/01/19 06:34:42;;;;;;;;;15.25;14.75;;;;;-147.17;100.00;-15917.19;5043564;28;51816;-60
2023/01/19 06:37:08;;;;;;;;;15.50;11.75;;;;;-147.17;100.00;-15917.19;5059026;28;51263;-58
2023/01/19 06:39:33;;;;;;;;;11.25;9.00;;;;;-147.17;100.00;-15917.19;5065976;27;51128;-57
2023/01/19 06:41:59;;;;;;;;;16.75;14.75;;;;;-147.17;100.00;-15917.19;5053584;27;51258;-58
2023/01/19 06:44:24;;;;;;;;;11.75;11.25;;;;;-147.17;100.00;-15917.19;5058089;28;51058;-58
2023/01/19 06:46:50;;;;;;;;;14.50;14.00;;;;;-147.17;100.00;-15917.19;5044395;28;51159;-58
2023/01/19 06:49:15;;;;;;;;;11.75;10.00;;;;;-147.17;100.00;-15917.19;5050459;28;51525;-60
2023/01/19 06:51:40;;;;;;;;;14.50;12.50;;;;;-147.17;100.00;-15917.19;5059393;28;51295;-57
2023/01/19 06:54:06;;;;;;;;;11.25;11.00;;;;;-147.17;100.00;-15917.19;5053663;27;51269;-57
2023/01/19 06:56:31;;;;;;;;;11.50;11.50;;;;;-147.17;100.00;-15917.19;5050342;28;51098;-58
2023/01/19 06:58:57;;;;;;;;;9.00;8.75;;;;;-147.17;100.00;-15917.19;5056035;28;51189;-58
2023/01/19 07:01:22;;;;;;;;;9.00;8.50;;;;;-147.17;100.00;-15917.19;5082796;27;51469;-57
2023/01/19 07:03:47;;;;;;;;;6.50;5.50;;;;;-147.17;100.00;-15917.19;5046249;27;51609;-57
2023/01/19 07:06:13;;;;;;;;;10.00;9.50;;;;;-147.17;100.00;-15917.19;5038626;28;51103;-58
2023/01/19 07:08:38;;;;;;;;;11.75;11.00;;;;;-147.17;100.00;-15917.19;5053999;28;51098;-57
2023/01/19 07:11:10;;;;;;;;;12.00;12.00;;;;;-147.17;100.00;-15917.19;5059564;28;51304;-58
2023/01/19 07:13:37;;;;;;;;;11.25;11.00;;;;;-147.17;100.00;-15917.19;5060388;28;52718;-58
2023/01/19 07:16:12;;;;;;;;;3.50;2.00;;;;;-147.17;100.00;-15917.19;5061223;27;51140;-58
2023/01/19 07:18:39;;;;;;;;;14.75;14.50;;;;;-147.17;100.00;-15917.19;5039477;28;51323;-58
2023/01/19 07:21:05;;;;;;;;;11.50;11.00;;;;;-147.17;100.00;-15917.19;5049691;27;51111;-58
2023/01/19 07:23:31;;;;;;;;;12.00;10.50;;;;;-147.17;100.00;-15917.19;5055006;28;51951;-58
2023/01/19 07:26:00;;;;;;;;;12.75;12.00;;;;;-147.17;100.00;-15917.19;5054382;28;51090;-57
2023/01/19 07:28:26;;;;;;;;;9.00;9.00;;;;;-147.17;100.00;-15917.19;5055403;27;51301;-57
2023/01/19 07:30:53;;;;;;;;;15.00;12.50;;;;;-147.17;100.00;-15917.19;5070721;27;51177;-57
2023/01/19 07:33:20;;;;;;;;;12.25;12.00;;;;;-147.17;100.00;-15917.19;5071139;28;51198;-58
2023/01/19 07:35:47;;;;;;;;;11.50;9.50;;;;;-147.17;100.00;-15917.19;5059825;27;51064;-58
2023/01/19 07:38:13;;;;;;;;;12.00;11.00;;;;;-147.17;100.00;-15917.19;5051545;28;51243;-57
2023/01/19 07:40:38;;;;;;;;;12.75;11.00;;;;;-147.17;100.00;-15917.19;5072489;27;50940;-59
2023/01/19 07:43:04;;;;;;;;;12.75;12.00;;;;;-147.17;100.00;-15917.19;5038719;27;52273;-57
2023/01/19 07:45:29;;;;;;;;;12.25;11.25;;;;;-147.17;100.00;-15917.19;5051098;27;51304;-58
2023/01/19 07:47:55;;;;;;;;;13.50;12.75;;;;;-147.17;100.00;-15917.19;5040339;28;51164;-58
2023/01/19 07:50:23;;;;;;;;;16.25;12.75;;;;;-147.17;100.00;-15917.19;5073400;27;51409;-58
2023/01/19 07:52:52;;;;;;;;;19.25;16.25;;;;;-147.17;100.00;-15917.19;5044261;28;51788;-58
2023/01/19 07:55:18;;;;;;;;;16.75;16.00;;;;;-147.17;100.00;-15917.19;5073149;27;51152;-60
2023/01/19 07:57:43;;;;;;;;;15.50;11.75;;;;;-147.17;100.00;-15917.19;5070568;28;51103;-58
2023/01/19 08:00:09;;;;;;;;;12.00;12.00;;;;;-147.17;100.00;-15917.19;5063133;28;50915;-58
2023/01/19 08:02:35;;;;;;;;;15.25;12.25;;;;;-147.17;100.00;-15917.19;5056590;28;51584;-59
2023/01/19 08:05:01;;;;;;;;;14.75;12.50;;;;;-147.17;100.00;-15917.19;5072728;27;51084;-61
2023/01/19 08:07:27;;;;;;;;;13.50;11.00;;;;;-147.17;100.00;-15917.19;5072696;27;51134;-58
2023/01/19 08:09:52;;;;;;;;;15.00;12.50;;;;;-147.17;100.00;-15917.19;5072603;27;51394;-59
2023/01/19 08:12:17;;;;;;;;;14.75;14.75;;;;;-147.17;100.00;-15917.19;5053836;27;50964;-58
2023/01/19 08:14:43;;;;;;;;;15.25;15.00;;;;;-147.17;100.00;-15917.19;5072891;27;51176;-58
2023/01/19 08:17:12;;;;;;;;;15.00;13.75;;;;;-147.17;100.00;-15917.19;5071690;27;51103;-58
2023/01/19 08:19:37;;;;;;;;;13.00;12.00;;;;;-147.17;100.00;-15917.19;5072947;27;50835;-59
2023/01/19 08:22:03;;;;;;;;;12.25;11.75;;;;;-147.17;100.00;-15917.19;5060389;27;51225;-58
2023/01/19 08:24:28;;;;;;;;;18.25;15.75;;;;;-147.17;100.00;-15917.19;5071201;28;51063;-58
2023/01/19 08:26:58;;;;;;;;;13.00;12.00;;;;;-147.17;100.00;-15917.19;5071043;28;51222;-59
2023/01/19 08:29:24;;;;;;;;;21.75;16.25;;;;;-147.17;100.00;-15917.19;5073032;27;51028;-58
2023/01/19 08:31:49;;;;;;;;;19.00;16.00;;;;;-147.17;100.00;-15917.19;5045559;28;51194;-58
2023/01/19 08:34:15;;;;;;;;;17.75;15.50;;;;;-147.17;100.00;-15917.19;5041585;28;51455;-58
2023/01/19 08:36:40;;;;;;;;;20.00;17.25;;;;;-147.17;100.00;-15917.19;5036485;28;51134;-59
2023/01/19 08:39:05;;;;;;;;;12.25;12.25;;;;;-147.17;100.00;-15917.19;5045762;28;50857;-58
2023/01/19 08:41:31;;;;;;;;;11.00;9.75;;;;;-147.17;100.00;-15917.19;5034252;28;51217;-58
2023/01/19 08:43:56;;;;;;;;;20.75;19.50;;;;;-147.17;100.00;-15917.19;5037463;28;51541;-59
2023/01/19 08:46:22;;;;;;;;;17.25;16.25;;;;;-147.17;100.00;-15917.19;5045333;28;51156;-59
2023/01/19 08:48:48;;;;;;;;;18.75;16.75;;;;;-147.17;100.00;-15917.19;5039203;28;51271;-58
2023/01/19 08:51:14;;;;;;;;;14.00;13.75;;;;;-147.17;100.00;-15917.19;5038426;28;53001;-59
2023/01/19 08:53:41;;;;;;;;;22.50;19.75;;;;;-147.17;100.00;-15917.19;5040741;28;51170;-58
2023/01/19 08:56:11;;;;;;;;;29.75;25.50;;;;;-147.17;100.00;-15917.19;5049907;28;51045;-58
2023/01/19 08:58:38;;;;;;;;;16.50;16.00;;;;;-147.17;100.00;-15917.19;5045125;28;51113;-57
2023/01/19 09:01:04;;;;;;;;;14.75;14.75;;;;;-147.17;100.00;-15917.19;5065570;27;54034;-59
2023/01/19 09:03:29;;;;;;;;;22.50;19.00;;;;;-147.17;100.00;-15917.19;5048654;28;51323;-59
2023/01/19 09:05:54;;;;;;;;;20.00;17.00;;;;;-147.17;100.00;-15917.19;5051021;28;51022;-59
2023/01/19 09:08:19;;;;;;;;;22.00;20.25;;;;;-147.17;100.00;-15917.19;5059367;28;50989;-59
2023/01/19 09:10:48;;;;;;;;;26.25;19.50;;;;;-147.17;100.00;-15917.19;5067281;27;53885;-58
2023/01/19 09:13:14;;;;;;;;;17.25;15.00;;;;;-147.17;100.00;-15917.19;5071369;27;51140;-59
2023/01/19 09:15:40;;;;;;;;;21.25;20.00;;;;;-147.17;100.00;-15917.19;5058370;28;51032;-58
2023/01/19 09:18:12;;;;;;;;;17.50;16.25;;;;;-147.17;100.00;-15917.19;5051781;28;50932;-59
2023/01/19 09:20:41;;;;;;;;;20.75;20.25;;;;;-147.17;100.00;-15917.19;5070178;27;51232;-59
2023/01/19 09:23:09;;;;;;;;;26.75;22.25;;;;;-147.17;100.00;-15917.19;5070636;28;50969;-59
2023/01/19 09:25:38;;;;;;;;;20.25;18.75;;;;;-147.17;100.00;-15917.19;5055252;27;51373;-59
2023/01/19 09:28:05;;;;;;;;;25.25;22.00;;;;;-147.17;100.00;-15917.19;5072372;28;51363;-58
2023/01/19 09:30:31;;;;;;;;;20.50;19.75;;;;;-147.17;100.00;-15917.19;5074860;27;51685;-58
2023/01/19 09:33:06;;;;;;;;;21.25;19.00;;;;;-147.17;100.00;-15917.19;5075558;27;51049;-59
2023/01/19 09:35:33;;;;;;;;;18.00;16.25;;;;;-147.17;100.00;-15917.19;5062787;27;50904;-58
2023/01/19 09:37:59;;;;;;;;;18.00;17.00;;;;;-147.17;100.00;-15917.19;5075695;27;50923;-59
2023/01/19 09:40:25;;;;;;;;;23.50;20.00;;;;;-147.17;100.00;-15917.19;5074649;27;51215;-58
2023/01/19 09:43:15;;;;;;;;;19.00;17.75;;;;;-147.17;100.00;-15917.19;5071953;27;51069;-59
2023/01/19 09:45:50;;;;;;;;;16.00;15.00;;;;;-147.17;100.00;-15917.19;5055349;28;51253;-58
2023/01/19 09:48:33;;;;;;;;;24.50;22.00;;;;;-147.17;100.00;-15917.19;5075927;27;51266;-59
2023/01/19 09:51:03;;;;;;;;;23.50;23.50;;;;;-147.17;100.00;-15917.19;5075006;27;51088;-59
2023/01/19 09:53:49;;;;;;;;;20.00;19.75;;;;;-147.17;100.00;-15917.19;5074158;28;51008;-59
2023/01/19 09:56:17;;;;;;;;;24.50;22.25;;;;;-147.17;100.00;-15917.19;5067208;28;51179;-58
2023/01/19 09:58:43;;;;;;;;;23.00;21.00;;;;;-147.17;100.00;-15917.19;5061499;28;51320;-59
2023/01/19 10:01:29;;;;;;;;;24.25;22.50;;;;;-147.17;100.00;-15917.19;5063176;28;51228;-59
2023/01/19 10:04:24;;;;;;;;;20.50;20.00;;;;;-147.17;100.00;-15917.19;5065427;27;51245;-58
2023/01/19 10:06:56;;;;;;;;;21.50;19.75;;;;;-147.17;100.00;-15917.19;5049989;28;51135;-58
2023/01/19 10:09:35;;;;;;;;;26.00;24.00;;;;;-147.17;100.00;-15917.19;5074714;27;51184;-59
2023/01/19 10:12:11;;;;;;;;;18.00;16.00;;;;;-147.17;100.00;-15917.19;5068426;27;51842;-57
2023/01/19 10:14:48;;;;;;;;;29.50;25.00;;;;;-147.17;100.00;-15917.19;5069635;28;50808;-60
2023/01/19 10:17:19;;;;;;;;;21.50;19.25;;;;;-147.17;100.00;-15917.19;5074613;27;51181;-59
2023/01/19 10:19:50;;;;;;;;;25.25;22.50;;;;;-147.17;100.00;-15917.19;5074986;27;51176;-60
2023/01/19 10:22:22;;;;;;;;;31.75;25.50;;;;;-147.17;100.00;-15917.19;5089738;27;52100;-59
2023/01/19 10:24:52;;;;;;;;;24.50;23.00;;;;;-147.17;100.00;-15917.19;5062594;28;51114;-58
2023/01/19 10:27:23;;;;;;;;;28.50;25.75;;;;;-147.17;100.00;-15917.19;5044198;28;51072;-58
2023/01/19 10:29:48;;;;;;;;;30.25;29.75;;;;;-147.17;100.00;-15917.19;5069869;27;51237;-58
2023/01/19 10:32:25;;;;;;;;;29.00;28.00;;;;;-147.17;100.00;-15917.19;5071257;28;52295;-58
2023/01/19 10:34:51;;;;;;;;;34.25;28.50;;;;;-147.17;100.00;-15917.19;5074379;27;51018;-59
2023/01/19 10:37:23;;;;;;;;;29.25;27.25;;;;;-147.17;100.00;-15917.19;5058066;27;51112;-58
2023/01/19 10:39:56;;;;;;;;;26.00;25.50;;;;;-147.17;100.00;-15917.19;5051363;28;51209;-58
2023/01/19 10:42:21;;;;;;;;;29.00;26.75;;;;;-147.17;100.00;-15917.19;5055479;28;51343;-59
2023/01/19 10:44:48;;;;;;;;;30.25;28.50;;;;;-147.17;100.00;-15917.19;5062219;27;50934;-59
2023/01/19 10:47:19;;;;;;;;;25.25;24.25;;;;;-147.17;100.00;-15917.19;5061339;27;51898;-56
2023/01/19 10:49:46;;;;;;;;;25.00;24.00;;;;;-147.17;100.00;-15917.19;5073261;28;50944;-54
2023/01/19 10:52:35;;;;;;;;;31.25;29.00;;;;;-147.17;100.00;-15917.19;5072486;28;50947;-62
2023/01/19 10:55:05;;;;;;;;;26.50;25.00;;;;;-147.17;100.00;-15917.19;5064185;28;50974;-60
2023/01/19 10:57:35;;;;;;;;;45.00;35.50;;;;;-147.17;100.00;-15917.19;5061806;28;51101;-49
2023/01/19 11:00:02;;;;;;;;;29.25;27.75;;;;;-147.17;100.00;-15917.19;5040420;28;51380;-49